Time;durP1;ratioP1;P1;durP2;ratioP2;P2;SDS_P1;SDS_P2;PMS_P1;PMS_P2;Temp;Humidity;BMP_temperature;BMP_pressure;BME280_temperature;BME280_humidity;BME280_pressure;Samples;Min_cycle;Max_cycle;Signal;HPM_P1;HPM_P2
2022/01/21 00:00:46;;;;;;;5.30;2.70;;;;;;;;;;5012529;28;20497;-51
2022/01/21 00:03:12;;;;;;;6.30;3.37;;;;;;;;;;5012524;28;20412;-55
2022/01/21 00:05:39;;;;;;;5.23;3.43;;;;;;;;;;5012191;28;20562;-56
2022/01/21 00:08:05;;;;;;;3.23;2.87;;;;;;;;;;5012336;28;20457;-55
2022/01/21 00:10:31;;;;;;;3.37;3.07;;;;;;;;;;5012416;28;20891;-51
2022/01/21 00:12:58;;;;;;;3.73;3.33;;;;;;;;;;5012344;28;20418;-57
2022/01/21 00:15:24;;;;;;;17.63;2.90;;;;;;;;;;5012828;28;20475;-51
2022/01/21 00:17:50;;;;;;;3.23;3.00;;;;;;;;;;5012331;28;20441;-51
2022/01/21 00:31:14;;;;;;;3.23;2.83;;;;;;;;;;5012277;28;20412;-50
2022/01/21 00:33:40;;;;;;;5.83;2.80;;;;;;;;;;5010815;28;20398;-53
2022/01/21 00:36:08;;;;;;;6.77;3.13;;;;;;;;;;5012239;28;20751;-52
2022/01/21 00:38:34;;;;;;;3.13;2.80;;;;;;;;;;5012155;28;20409;-53
2022/01/21 00:41:04;;;;;;;3.07;2.83;;;;;;;;;;5012036;28;20380;-54
2022/01/21 00:43:32;;;;;;;11.60;3.20;;;;;;;;;;5012264;28;20405;-54
2022/01/21 00:45:59;;;;;;;6.63;3.53;;;;;;;;;;5011057;28;20771;-52
2022/01/21 00:48:25;;;;;;;3.03;2.80;;;;;;;;;;5012144;28;20875;-59
2022/01/21 00:50:51;;;;;;;3.43;3.00;;;;;;;;;;5012289;28;20401;-57
2022/01/21 00:53:17;;;;;;;8.23;3.57;;;;;;;;;;5012075;28;20715;-51
2022/01/21 00:55:44;;;;;;;12.20;2.70;;;;;;;;;;5012124;28;20412;-55
2022/01/21 00:58:10;;;;;;;12.03;3.30;;;;;;;;;;5012073;28;20409;-52
2022/01/21 01:00:36;;;;;;;7.70;3.17;;;;;;;;;;5012027;28;20420;-54
2022/01/21 01:03:03;;;;;;;6.23;3.13;;;;;;;;;;5011892;28;20414;-53
2022/01/21 01:05:29;;;;;;;3.63;2.77;;;;;;;;;;5010491;28;20409;-52
2022/01/21 01:07:55;;;;;;;3.70;2.93;;;;;;;;;;5011909;28;20503;-54
2022/01/21 01:10:36;;;;;;;5.10;3.00;;;;;;;;;;5011965;28;20384;-54
2022/01/21 01:19:56;;;;;;;4.60;2.60;;;;;;;;;;5012021;28;20449;-51
2022/01/21 01:21:18;;;;;;;5.00;3.00;;;;;;;;;;5015847;28;20395;-52
2022/01/21 01:27:35;;;;;;;5.90;3.07;;;;;;;;;;5014830;28;20387;-51
2022/01/21 01:29:19;;;;;;;2.70;2.50;;;;;;;;;;5016497;28;20825;-51
2022/01/21 01:31:45;;;;;;;2.53;2.33;;;;;;;;;;5016471;28;20405;-51
2022/01/21 01:34:11;;;;;;;4.50;3.17;;;;;;;;;;5016226;28;20412;-51
2022/01/21 01:36:39;;;;;;;5.40;3.10;;;;;;;;;;5015880;28;20439;-50
2022/01/21 01:39:29;;;;;;;3.27;2.97;;;;;;;;;;5016261;28;20871;-52
2022/01/21 01:42:14;;;;;;;7.33;3.03;;;;;;;;;;5015996;28;20417;-51
2022/01/21 01:50:36;;;;;;;4.30;2.60;;;;;;;;;;5007620;28;20438;-51
2022/01/21 01:53:03;;;;;;;3.60;3.30;;;;;;;;;;5015522;28;20420;-55
2022/01/21 01:55:29;;;;;;;8.77;3.00;;;;;;;;;;5015494;28;20384;-54
2022/01/21 01:57:55;;;;;;;2.57;2.47;;;;;;;;;;5015688;28;20414;-54
2022/01/21 02:00:21;;;;;;;2.57;2.43;;;;;;;;;;5014343;28;20395;-56
2022/01/21 02:02:47;;;;;;;5.07;3.23;;;;;;;;;;5014187;28;20393;-58
2022/01/21 02:05:13;;;;;;;3.77;2.50;;;;;;;;;;5015406;28;20387;-51
2022/01/21 02:07:39;;;;;;;5.33;2.67;;;;;;;;;;5015325;28;20473;-55
2022/01/21 02:10:05;;;;;;;5.60;3.20;;;;;;;;;;5015356;28;20449;-51
2022/01/21 02:12:31;;;;;;;3.10;2.90;;;;;;;;;;5015176;28;20818;-53
2022/01/21 02:15:00;;;;;;;2.83;2.63;;;;;;;;;;5015527;28;20803;-53
2022/01/21 02:22:44;;;;;;;6.57;2.93;;;;;;;;;;5014910;28;20527;-53
2022/01/21 02:25:19;;;;;;;11.33;2.80;;;;;;;;;;5015184;28;20417;-53
2022/01/21 02:27:52;;;;;;;4.40;3.37;;;;;;;;;;5014695;28;20439;-55
2022/01/21 02:30:19;;;;;;;5.33;3.03;;;;;;;;;;5014953;28;20915;-55
2022/01/21 02:32:46;;;;;;;5.43;3.13;;;;;;;;;;5014760;28;20894;-50
2022/01/21 02:35:13;;;;;;;4.37;2.80;;;;;;;;;;5015035;28;20421;-51
2022/01/21 02:37:39;;;;;;;8.30;3.03;;;;;;;;;;5014890;28;20544;-52
2022/01/21 02:40:06;;;;;;;3.00;2.90;;;;;;;;;;5014665;28;20771;-52
2022/01/21 02:42:32;;;;;;;4.83;2.57;;;;;;;;;;5014489;28;20503;-55
2022/01/21 02:44:58;;;;;;;2.83;2.30;;;;;;;;;;5014556;28;20417;-51
2022/01/21 02:47:24;;;;;;;6.07;2.80;;;;;;;;;;5014708;28;20504;-51
2022/01/21 02:49:50;;;;;;;15.23;3.60;;;;;;;;;;5014750;28;20400;-53
2022/01/21 02:52:18;;;;;;;11.93;3.13;;;;;;;;;;5014763;28;20421;-51
2022/01/21 02:54:44;;;;;;;10.57;3.27;;;;;;;;;;5014397;28;20392;-53
2022/01/21 02:57:10;;;;;;;5.40;3.27;;;;;;;;;;5014483;28;20505;-51
2022/01/21 02:59:37;;;;;;;5.03;4.03;;;;;;;;;;5013227;28;20391;-51
2022/01/21 03:02:03;;;;;;;2.93;2.73;;;;;;;;;;5014590;28;20422;-51
2022/01/21 03:07:14;;;;;;;3.20;2.90;;;;;;;;;;5014376;28;20422;-50
2022/01/21 03:09:40;;;;;;;2.90;2.70;;;;;;;;;;5014297;28;20418;-51
2022/01/21 03:12:06;;;;;;;4.40;2.43;;;;;;;;;;5014191;28;20380;-51
2022/01/21 03:14:32;;;;;;;4.77;2.80;;;;;;;;;;5014211;28;20945;-50
2022/01/21 03:16:58;;;;;;;2.80;2.60;;;;;;;;;;5014170;28;20818;-50
2022/01/21 03:19:24;;;;;;;3.03;2.80;;;;;;;;;;5014390;28;20396;-49
2022/01/21 03:21:50;;;;;;;2.83;2.73;;;;;;;;;;5013926;28;20452;-51
2022/01/21 03:24:16;;;;;;;3.27;3.07;;;;;;;;;;5014014;28;20414;-50
2022/01/21 03:26:42;;;;;;;3.00;2.80;;;;;;;;;;5013886;28;20442;-50
2022/01/21 03:29:08;;;;;;;2.90;2.70;;;;;;;;;;5013831;28;20424;-50
2022/01/21 03:31:34;;;;;;;13.50;3.53;;;;;;;;;;5013786;28;20428;-50
2022/01/21 03:34:01;;;;;;;5.63;2.67;;;;;;;;;;5013789;28;20566;-51
2022/01/21 03:36:28;;;;;;;9.00;3.30;;;;;;;;;;5013631;28;20381;-50
2022/01/21 03:38:54;;;;;;;4.20;3.30;;;;;;;;;;5013031;28;20435;-53
2022/01/21 03:41:20;;;;;;;3.70;2.40;;;;;;;;;;5013526;28;20480;-49
2022/01/21 03:43:47;;;;;;;4.83;2.80;;;;;;;;;;5013488;28;20384;-52
2022/01/21 03:46:14;;;;;;;7.00;2.60;;;;;;;;;;5013434;28;20911;-52
2022/01/21 03:48:40;;;;;;;8.77;2.97;;;;;;;;;;5012121;28;20481;-55
2022/01/21 03:51:06;;;;;;;3.20;3.00;;;;;;;;;;5013642;28;20442;-53
2022/01/21 03:53:32;;;;;;;4.77;3.10;;;;;;;;;;5013305;28;20417;-55
2022/01/21 03:55:58;;;;;;;3.20;2.63;;;;;;;;;;5012000;28;20889;-52
2022/01/21 03:58:24;;;;;;;5.53;3.17;;;;;;;;;;5013509;28;20431;-64
2022/01/21 04:00:51;;;;;;;6.03;3.10;;;;;;;;;;5013217;28;20409;-64
2022/01/21 04:03:18;;;;;;;5.60;2.97;;;;;;;;;;5013287;28;20403;-56
2022/01/21 04:05:44;;;;;;;3.37;3.00;;;;;;;;;;5013438;28;20416;-59
2022/01/21 04:08:11;;;;;;;3.27;2.97;;;;;;;;;;5012961;28;20477;-54
2022/01/21 04:10:41;;;;;;;7.03;3.50;;;;;;;;;;5013244;28;20417;-55
2022/01/21 04:13:13;;;;;;;6.30;3.33;;;;;;;;;;5013444;28;20407;-56
2022/01/21 04:15:39;;;;;;;6.17;2.90;;;;;;;;;;5013083;28;20402;-59
2022/01/21 04:18:05;;;;;;;4.80;2.70;;;;;;;;;;5012947;28;20467;-62
2022/01/21 04:20:31;;;;;;;2.73;2.50;;;;;;;;;;5012897;28;20395;-63
2022/01/21 04:22:58;;;;;;;9.60;3.00;;;;;;;;;;5012832;28;20517;-58
2022/01/21 04:25:24;;;;;;;3.60;3.30;;;;;;;;;;5013102;28;20420;-50
2022/01/21 04:27:50;;;;;;;4.77;3.10;;;;;;;;;;5012834;28;20997;-55
2022/01/21 04:30:16;;;;;;;4.50;2.70;;;;;;;;;;5012815;28;20497;-54
2022/01/21 04:32:42;;;;;;;3.73;2.43;;;;;;;;;;5012970;28;20392;-63
2022/01/21 04:35:08;;;;;;;2.77;2.67;;;;;;;;;;5012790;28;20423;-53
2022/01/21 04:37:36;;;;;;;2.97;2.67;;;;;;;;;;5012726;28;20424;-53
2022/01/21 04:40:15;;;;;;;3.53;2.27;;;;;;;;;;5012929;28;20401;-52
2022/01/21 04:48:11;;;;;;;8.50;3.30;;;;;;;;;;5012773;28;20902;-52
2022/01/21 04:50:51;;;;;;;4.80;2.80;;;;;;;;;;5014355;28;20380;-56
2022/01/21 04:53:17;;;;;;;3.13;2.93;;;;;;;;;;5016877;28;20485;-58
2022/01/21 04:55:43;;;;;;;3.50;2.53;;;;;;;;;;5015227;28;20388;-59
2022/01/21 04:58:09;;;;;;;3.13;2.57;;;;;;;;;;5016439;28;20396;-61
2022/01/21 05:00:35;;;;;;;2.80;2.47;;;;;;;;;;5016609;28;20445;-57
2022/01/21 05:03:01;;;;;;;4.67;3.10;;;;;;;;;;5015197;28;20395;-58
2022/01/21 05:05:27;;;;;;;5.63;2.60;;;;;;;;;;5016351;28;20406;-55
2022/01/21 05:07:54;;;;;;;4.40;3.30;;;;;;;;;;5016390;28;20561;-52
2022/01/21 05:10:23;;;;;;;3.60;3.30;;;;;;;;;;5015188;28;20414;-53
2022/01/21 05:12:49;;;;;;;4.80;3.10;;;;;;;;;;5016267;28;20392;-51
2022/01/21 05:15:22;;;;;;;2.87;2.23;;;;;;;;;;5016261;28;20915;-55
2022/01/21 05:17:51;;;;;;;10.90;2.83;;;;;;;;;;5016286;28;20524;-51
2022/01/21 05:20:17;;;;;;;6.20;2.97;;;;;;;;;;5015964;28;20483;-50
2022/01/21 05:22:44;;;;;;;2.53;2.40;;;;;;;;;;5015973;28;20543;-51
2022/01/21 05:25:16;;;;;;;3.07;2.87;;;;;;;;;;5015968;28;20413;-50
2022/01/21 05:27:44;;;;;;;7.23;3.47;;;;;;;;;;5015708;28;20985;-52
2022/01/21 05:30:10;;;;;;;3.07;2.83;;;;;;;;;;5016008;28;20414;-50
2022/01/21 05:32:36;;;;;;;4.97;2.97;;;;;;;;;;5015824;28;20406;-53
2022/01/21 05:35:02;;;;;;;3.27;3.07;;;;;;;;;;5014771;28;20411;-52
2022/01/21 05:37:28;;;;;;;3.07;2.83;;;;;;;;;;5016102;28;20751;-51
2022/01/21 05:39:54;;;;;;;3.90;3.07;;;;;;;;;;5015818;28;20502;-51
2022/01/21 05:42:21;;;;;;;3.47;3.00;;;;;;;;;;5016285;28;20422;-52
2022/01/21 05:47:13;;;;;;;5.20;2.87;;;;;;;;;;5015740;28;20446;-56
2022/01/21 05:49:40;;;;;;;8.57;3.57;;;;;;;;;;5015484;28;20943;-53
2022/01/21 05:52:16;;;;;;;7.00;3.60;;;;;;;;;;5015761;28;20741;-54
2022/01/21 05:54:43;;;;;;;2.87;2.67;;;;;;;;;;5015824;28;20451;-57
2022/01/21 05:57:12;;;;;;;6.47;3.30;;;;;;;;;;5015514;28;20390;-61
2022/01/21 05:59:38;;;;;;;5.93;3.10;;;;;;;;;;5015638;28;20413;-54
2022/01/21 06:02:05;;;;;;;6.07;3.67;;;;;;;;;;5014540;28;20621;-59
2022/01/21 06:04:32;;;;;;;7.00;3.23;;;;;;;;;;5015195;28;20450;-59
2022/01/21 06:07:00;;;;;;;9.63;3.73;;;;;;;;;;5013841;28;20907;-53
2022/01/21 06:09:26;;;;;;;3.40;2.87;;;;;;;;;;5015491;28;20436;-52
2022/01/21 06:11:52;;;;;;;6.17;3.67;;;;;;;;;;5014088;28;20894;-53
2022/01/21 06:14:18;;;;;;;5.93;3.33;;;;;;;;;;5015104;28;20407;-58
2022/01/21 06:16:44;;;;;;;6.27;3.53;;;;;;;;;;5011938;28;20476;-51
2022/01/21 06:19:10;;;;;;;7.13;3.30;;;;;;;;;;4995459;28;20484;-54
2022/01/21 06:21:36;;;;;;;6.30;3.83;;;;;;;;;;4995239;28;20495;-53
2022/01/21 06:24:02;;;;;;;4.33;3.67;;;;;;;;;;4995206;28;20422;-55
2022/01/21 06:26:28;;;;;;;8.03;3.43;;;;;;;;;;4994006;28;20905;-56
2022/01/21 06:28:54;;;;;;;6.93;4.43;;;;;;;;;;4995336;28;20478;-61
2022/01/21 06:31:20;;;;;;;17.13;4.03;;;;;;;;;;4995198;28;20384;-54
2022/01/21 06:33:46;;;;;;;13.50;5.07;;;;;;;;;;4994953;28;20822;-56
2022/01/21 06:36:12;;;;;;;14.33;5.33;;;;;;;;;;4995187;28;20465;-54
2022/01/21 06:38:38;;;;;;;13.80;5.50;;;;;;;;;;4992781;28;20412;-57
2022/01/21 06:41:04;;;;;;;9.47;4.60;;;;;;;;;;4992851;28;20460;-52
2022/01/21 06:43:31;;;;;;;5.50;4.23;;;;;;;;;;4993996;28;20400;-58
2022/01/21 06:45:57;;;;;;;7.43;3.10;;;;;;;;;;4994081;28;20831;-53
2022/01/21 06:48:23;;;;;;;13.33;4.93;;;;;;;;;;4993957;28;20484;-53
2022/01/21 06:50:49;;;;;;;11.27;5.63;;;;;;;;;;4994140;28;20406;-55
2022/01/21 06:53:15;;;;;;;12.30;4.20;;;;;;;;;;4993763;28;20393;-55
2022/01/21 06:55:41;;;;;;;3.97;3.33;;;;;;;;;;4993485;28;20465;-53
2022/01/21 06:58:07;;;;;;;14.20;6.20;;;;;;;;;;4993701;28;20883;-54
2022/01/21 07:00:33;;;;;;;7.27;4.70;;;;;;;;;;4993831;28;20411;-53
2022/01/21 07:02:59;;;;;;;7.80;4.60;;;;;;;;;;4993542;28;20422;-55
2022/01/21 07:05:29;;;;;;;9.00;5.73;;;;;;;;;;4993816;28;20493;-55
2022/01/21 07:07:56;;;;;;;9.70;5.43;;;;;;;;;;4993531;28;20473;-50
2022/01/21 07:10:22;;;;;;;16.33;5.20;;;;;;;;;;4994632;28;20402;-57
2022/01/21 07:12:48;;;;;;;9.87;4.97;;;;;;;;;;4992858;28;20794;-52
2022/01/21 07:15:16;;;;;;;7.70;4.77;;;;;;;;;;4993741;28;20418;-59
2022/01/21 07:17:42;;;;;;;19.37;5.23;;;;;;;;;;4994291;28;20526;-56
2022/01/21 07:20:09;;;;;;;12.83;5.40;;;;;;;;;;4994399;28;20442;-58
2022/01/21 07:22:35;;;;;;;12.23;4.80;;;;;;;;;;4994058;28;20470;-51
2022/01/21 07:25:01;;;;;;;4.10;3.53;;;;;;;;;;4994256;28;20414;-51
2022/01/21 07:27:27;;;;;;;8.63;3.60;;;;;;;;;;4994162;28;20840;-53
2022/01/21 07:29:53;;;;;;;21.67;5.70;;;;;;;;;;4994484;28;20423;-50
2022/01/21 07:32:19;;;;;;;8.20;3.60;;;;;;;;;;4993904;28;20407;-54
2022/01/21 07:34:45;;;;;;;8.03;4.57;;;;;;;;;;4993985;28;20407;-52
2022/01/21 07:37:11;;;;;;;6.93;3.97;;;;;;;;;;4993835;28;20856;-52
2022/01/21 07:39:37;;;;;;;5.70;4.57;;;;;;;;;;4992649;28;20799;-52
2022/01/21 07:42:03;;;;;;;9.13;3.83;;;;;;;;;;4993720;28;20941;-52
2022/01/21 07:44:29;;;;;;;11.00;4.30;;;;;;;;;;4992383;28;20406;-54
2022/01/21 07:46:55;;;;;;;14.03;3.67;;;;;;;;;;4993493;28;20806;-56
2022/01/21 07:49:21;;;;;;;12.60;4.23;;;;;;;;;;4993839;28;20414;-57
2022/01/21 07:51:47;;;;;;;10.53;5.20;;;;;;;;;;4992346;28;20915;-54
2022/01/21 07:54:14;;;;;;;3.80;3.53;;;;;;;;;;4993652;28;20419;-53
2022/01/21 07:56:40;;;;;;;12.23;4.80;;;;;;;;;;4992616;28;20934;-55
2022/01/21 07:59:08;;;;;;;10.40;5.90;;;;;;;;;;4993666;28;20410;-55
2022/01/21 08:01:34;;;;;;;13.63;5.20;;;;;;;;;;4993713;28;20406;-56
2022/01/21 08:04:01;;;;;;;11.00;4.87;;;;;;;;;;4993736;28;20415;-55
2022/01/21 08:06:27;;;;;;;11.20;5.57;;;;;;;;;;4993503;28;20460;-53
2022/01/21 08:08:57;;;;;;;5.70;4.23;;;;;;;;;;4993214;28;20528;-58
2022/01/21 08:11:23;;;;;;;7.00;4.30;;;;;;;;;;4993551;28;20377;-55
2022/01/21 08:13:50;;;;;;;9.90;5.73;;;;;;;;;;4993319;28;20464;-55
2022/01/21 08:16:16;;;;;;;7.57;4.30;;;;;;;;;;4993461;28;20403;-55
2022/01/21 08:18:42;;;;;;;18.83;4.50;;;;;;;;;;4993788;28;20422;-54
2022/01/21 08:21:08;;;;;;;4.93;4.20;;;;;;;;;;4993442;28;20907;-54
2022/01/21 08:23:34;;;;;;;8.30;4.80;;;;;;;;;;4993398;28;20652;-56
2022/01/21 08:26:00;;;;;;;9.00;4.67;;;;;;;;;;4991847;28;20505;-54
2022/01/21 08:28:26;;;;;;;22.03;5.23;;;;;;;;;;4993293;28;20564;-52
2022/01/21 08:30:52;;;;;;;9.47;4.57;;;;;;;;;;4993819;28;20406;-56
2022/01/21 08:33:18;;;;;;;10.07;5.20;;;;;;;;;;4993476;28;20389;-53
2022/01/21 08:35:44;;;;;;;12.27;5.10;;;;;;;;;;4993364;28;20858;-53
2022/01/21 08:38:10;;;;;;;9.83;4.53;;;;;;;;;;4993000;28;20901;-56
2022/01/21 08:40:36;;;;;;;6.03;4.67;;;;;;;;;;4993335;28;20465;-52
2022/01/21 08:43:03;;;;;;;13.80;5.00;;;;;;;;;;5004798;28;20723;-55
2022/01/21 08:45:29;;;;;;;5.00;4.50;;;;;;;;;;5011250;28;20406;-54
2022/01/21 08:47:55;;;;;;;12.93;4.93;;;;;;;;;;5012146;28;20479;-57
2022/01/21 08:50:22;;;;;;;24.47;5.33;;;;;;;;;;5010977;28;20418;-57
2022/01/21 08:52:49;;;;;;;11.30;4.37;;;;;;;;;;5010483;28;20417;-52
2022/01/21 08:55:19;;;;;;;13.23;6.10;;;;;;;;;;5002258;28;20416;-54
2022/01/21 08:57:47;;;;;;;11.00;5.07;;;;;;;;;;5002707;28;20380;-54
2022/01/21 09:00:20;;;;;;;11.73;5.10;;;;;;;;;;5004709;28;20424;-53
2022/01/21 09:02:47;;;;;;;10.97;4.90;;;;;;;;;;5000131;28;20915;-53
2022/01/21 09:05:13;;;;;;;11.50;4.70;;;;;;;;;;5002443;28;20463;-52
2022/01/21 09:07:40;;;;;;;13.80;5.30;;;;;;;;;;5001665;28;20493;-52
2022/01/21 09:10:07;;;;;;;14.77;5.30;;;;;;;;;;5000796;28;20441;-51
2022/01/21 09:12:33;;;;;;;12.97;4.93;;;;;;;;;;5002318;28;20910;-50
2022/01/21 09:15:00;;;;;;;20.30;5.70;;;;;;;;;;5001720;28;20480;-52
2022/01/21 09:17:26;;;;;;;10.30;4.07;;;;;;;;;;5002108;28;20926;-54
2022/01/21 09:19:52;;;;;;;15.27;4.90;;;;;;;;;;5002669;28;20444;-51
2022/01/21 09:22:18;;;;;;;9.77;3.87;;;;;;;;;;5001210;28;20454;-54
2022/01/21 09:24:44;;;;;;;7.83;4.63;;;;;;;;;;5000879;28;20412;-53
2022/01/21 09:27:11;;;;;;;17.10;5.67;;;;;;;;;;4999092;28;20923;-53
2022/01/21 09:29:37;;;;;;;6.10;4.10;;;;;;;;;;5001469;28;20426;-52
2022/01/21 09:32:04;;;;;;;11.63;5.23;;;;;;;;;;5000143;28;20418;-53
2022/01/21 09:34:31;;;;;;;15.40;4.70;;;;;;;;;;5002757;28;20806;-57
2022/01/21 09:36:58;;;;;;;9.10;4.57;;;;;;;;;;4994683;28;20433;-56
2022/01/21 09:39:25;;;;;;;15.07;4.70;;;;;;;;;;4995138;28;20418;-55
2022/01/21 09:41:51;;;;;;;16.53;4.40;;;;;;;;;;4995018;28;20445;-54
2022/01/21 09:44:18;;;;;;;9.73;5.03;;;;;;;;;;4995060;28;20480;-54
2022/01/21 09:46:47;;;;;;;4.67;3.90;;;;;;;;;;4995039;28;21214;-53
2022/01/21 09:49:46;;;;;;;4.93;4.40;;;;;;;;;;4995890;28;20559;-54
2022/01/21 09:52:06;;;;;;;9.33;4.60;;;;;;;;;;5014121;28;20414;-57
2022/01/21 09:54:37;;;;;;;8.07;4.47;;;;;;;;;;5014150;28;21292;-56
2022/01/21 09:57:05;;;;;;;6.17;3.83;;;;;;;;;;5014279;28;20441;-57
2022/01/21 09:59:32;;;;;;;13.87;5.03;;;;;;;;;;5014133;28;20480;-64
2022/01/21 10:02:00;;;;;;;5.77;4.87;;;;;;;;;;5014076;28;20413;-58
2022/01/21 10:04:31;;;;;;;18.40;4.50;;;;;;;;;;5014310;28;20440;-57
2022/01/21 10:06:57;;;;;;;5.13;4.50;;;;;;;;;;5013843;28;20425;-56
2022/01/21 10:09:24;;;;;;;7.07;4.80;;;;;;;;;;5012721;28;20536;-59
2022/01/21 10:11:52;;;;;;;6.97;4.40;;;;;;;;;;5014217;28;20417;-54
2022/01/21 10:14:25;;;;;;;9.33;5.03;;;;;;;;;;5013848;28;20406;-52
2022/01/21 10:16:52;;;;;;;12.87;4.93;;;;;;;;;;5014183;28;20906;-54
2022/01/21 10:19:28;;;;;;;15.43;4.70;;;;;;;;;;5014031;28;20413;-59
2022/01/21 10:22:03;;;;;;;8.57;4.27;;;;;;;;;;5013955;28;20985;-52
2022/01/21 10:24:30;;;;;;;11.20;4.73;;;;;;;;;;5012239;28;20413;-53
2022/01/21 10:26:56;;;;;;;17.20;6.00;;;;;;;;;;5013744;28;20476;-54
2022/01/21 10:29:23;;;;;;;7.70;5.10;;;;;;;;;;5013832;28;21192;-55
2022/01/21 10:31:53;;;;;;;11.60;5.20;;;;;;;;;;5013620;28;20938;-54
2022/01/21 10:34:30;;;;;;;15.87;4.50;;;;;;;;;;5013720;28;20413;-54
2022/01/21 10:37:09;;;;;;;17.27;6.00;;;;;;;;;;5013687;28;20829;-54
2022/01/21 10:39:54;;;;;;;7.90;4.90;;;;;;;;;;5013699;28;20421;-53
2022/01/21 10:42:23;;;;;;;8.23;4.20;;;;;;;;;;5013440;28;20424;-54
2022/01/21 10:44:50;;;;;;;9.33;4.93;;;;;;;;;;5013581;28;20433;-54
2022/01/21 10:47:16;;;;;;;11.40;5.03;;;;;;;;;;5013363;28;20464;-53
2022/01/21 10:49:45;;;;;;;6.30;4.90;;;;;;;;;;5011855;28;20437;-55
2022/01/21 10:52:14;;;;;;;9.43;5.53;;;;;;;;;;5013556;28;20417;-56
2022/01/21 10:54:42;;;;;;;11.53;6.00;;;;;;;;;;5013445;28;20428;-55
2022/01/21 10:57:10;;;;;;;8.43;5.27;;;;;;;;;;5006258;28;20425;-52
2022/01/21 10:59:48;;;;;;;9.80;5.80;;;;;;;;;;5004983;28;20483;-53
2022/01/21 11:02:14;;;;;;;8.50;4.63;;;;;;;;;;5019057;28;20466;-52
2022/01/21 11:04:43;;;;;;;12.00;4.60;;;;;;;;;;5033412;28;20403;-57
2022/01/21 11:07:14;;;;;;;5.10;4.60;;;;;;;;;;5003205;28;20397;-52
2022/01/21 11:09:40;;;;;;;11.20;5.27;;;;;;;;;;5001891;28;20418;-52
2022/01/21 11:12:10;;;;;;;5.17;4.60;;;;;;;;;;5002016;28;20410;-54
2022/01/21 11:14:37;;;;;;;9.73;4.70;;;;;;;;;;5002028;28;20493;-56
2022/01/21 11:17:07;;;;;;;9.53;4.97;;;;;;;;;;5003866;28;20484;-54
2022/01/21 11:19:35;;;;;;;9.13;5.50;;;;;;;;;;5001834;28;20407;-57
2022/01/21 11:22:04;;;;;;;12.40;5.30;;;;;;;;;;5002310;28;20453;-53
2022/01/21 11:24:30;;;;;;;6.03;5.10;;;;;;;;;;5003561;28;20397;-53
2022/01/21 11:27:08;;;;;;;4.37;4.07;;;;;;;;;;5001315;28;20412;-52
2022/01/21 11:29:35;;;;;;;6.57;4.67;;;;;;;;;;5002001;28;20434;-54
2022/01/21 11:32:03;;;;;;;10.17;4.47;;;;;;;;;;5002207;28;20497;-54
2022/01/21 11:34:29;;;;;;;10.43;4.80;;;;;;;;;;5002654;28;20422;-53
2022/01/21 11:36:55;;;;;;;5.27;4.13;;;;;;;;;;5034863;28;20949;-53
2022/01/21 11:39:24;;;;;;;4.03;3.70;;;;;;;;;;5001627;28;20417;-54
2022/01/21 11:41:51;;;;;;;4.43;3.40;;;;;;;;;;5001535;28;20402;-55
2022/01/21 11:44:20;;;;;;;6.60;4.30;;;;;;;;;;4999701;28;20441;-53
2022/01/21 11:46:59;;;;;;;5.63;4.37;;;;;;;;;;5000192;28;20412;-52
2022/01/21 11:49:25;;;;;;;7.80;4.10;;;;;;;;;;5003527;28;21261;-54
2022/01/21 11:52:11;;;;;;;11.10;4.70;;;;;;;;;;5003895;28;20502;-54
2022/01/21 11:54:38;;;;;;;13.50;3.80;;;;;;;;;;5001902;28;20458;-53
2022/01/21 11:57:05;;;;;;;5.17;3.93;;;;;;;;;;5002611;28;20414;-55
2022/01/21 11:59:37;;;;;;;7.30;4.23;;;;;;;;;;5002536;28;20437;-55
2022/01/21 12:02:23;;;;;;;4.87;3.80;;;;;;;;;;5002611;28;20444;-51
2022/01/21 12:04:51;;;;;;;7.33;4.23;;;;;;;;;;5003193;28;20399;-56
2022/01/21 12:07:41;;;;;;;5.60;3.00;;;;;;;;;;5003560;28;20552;-54
2022/01/21 12:10:09;;;;;;;3.90;3.60;;;;;;;;;;5002860;28;20453;-54
2022/01/21 12:13:03;;;;;;;4.03;3.63;;;;;;;;;;5033814;28;20432;-52
2022/01/21 12:16:29;;;;;;;8.53;4.13;;;;;;;;;;5002847;28;20418;-54
2022/01/21 12:21:06;;;;;;;4.70;3.87;;;;;;;;;;5002756;28;20810;-54
2022/01/21 12:23:42;;;;;;;5.60;4.03;;;;;;;;;;5002629;28;21075;-54
2022/01/21 12:26:15;;;;;;;5.37;3.77;;;;;;;;;;5002461;28;20898;-54
2022/01/21 12:28:59;;;;;;;9.50;4.17;;;;;;;;;;5002352;28;20552;-57
2022/01/21 12:31:42;;;;;;;4.80;3.67;;;;;;;;;;5014869;28;20584;-54
2022/01/21 12:34:12;;;;;;;3.80;3.50;;;;;;;;;;5016746;28;20457;-59
2022/01/21 12:36:43;;;;;;;18.80;4.87;;;;;;;;;;5003012;28;20409;-53
2022/01/21 12:39:27;;;;;;;4.30;3.90;;;;;;;;;;5011957;28;20441;-53
2022/01/21 12:41:53;;;;;;;8.83;3.97;;;;;;;;;;5011833;28;20416;-52
2022/01/21 12:44:30;;;;;;;3.60;3.40;;;;;;;;;;5043359;28;20413;-52
2022/01/21 12:46:57;;;;;;;5.47;3.80;;;;;;;;;;5011638;28;20431;-54
2022/01/21 12:49:33;;;;;;;4.20;3.80;;;;;;;;;;5011813;28;20511;-53
2022/01/21 12:57:28;;;;;;;10.53;3.40;;;;;;;;;;4991856;28;20417;-52
2022/01/21 12:59:56;;;;;;;3.77;3.43;;;;;;;;;;5011749;28;20483;-55
2022/01/21 13:02:26;;;;;;;6.23;3.30;;;;;;;;;;5010222;28;20452;-54
2022/01/21 13:05:16;;;;;;;6.00;3.63;;;;;;;;;;5010317;28;20425;-53
2022/01/21 13:08:00;;;;;;;6.70;3.47;;;;;;;;;;4983729;28;20552;-53
2022/01/21 13:10:27;;;;;;;12.60;4.20;;;;;;;;;;5011496;28;20413;-53
2022/01/21 13:15:39;;;;;;;4.60;3.80;;;;;;;;;;5015531;28;20487;-53
2022/01/21 13:18:05;;;;;;;4.10;3.57;;;;;;;;;;5015126;28;20429;-54
2022/01/21 13:20:33;;;;;;;4.80;3.50;;;;;;;;;;5014015;28;20863;-55
2022/01/21 13:23:00;;;;;;;7.77;4.03;;;;;;;;;;5014957;28;20493;-58
2022/01/21 13:25:26;;;;;;;3.90;3.40;;;;;;;;;;5014952;28;20885;-54
2022/01/21 13:27:53;;;;;;;3.93;3.63;;;;;;;;;;5014976;28;20461;-62
2022/01/21 13:30:21;;;;;;;5.90;3.40;;;;;;;;;;5015136;28;20894;-58
2022/01/21 13:32:47;;;;;;;6.73;3.43;;;;;;;;;;5014927;28;20447;-56
2022/01/21 13:35:14;;;;;;;3.50;3.30;;;;;;;;;;5014965;28;20405;-56
2022/01/21 13:37:42;;;;;;;9.17;4.33;;;;;;;;;;5014753;28;20405;-55
2022/01/21 13:40:09;;;;;;;6.53;4.00;;;;;;;;;;5014902;28;20402;-57
2022/01/21 13:42:35;;;;;;;3.03;2.93;;;;;;;;;;5014832;28;20422;-55
2022/01/21 13:45:05;;;;;;;3.80;3.50;;;;;;;;;;5014482;28;20766;-57
2022/01/21 13:47:36;;;;;;;7.23;3.93;;;;;;;;;;5014375;28;20965;-60
2022/01/21 13:50:02;;;;;;;4.43;4.00;;;;;;;;;;5014328;28;20422;-56
2022/01/21 13:52:42;;;;;;;8.10;4.00;;;;;;;;;;5014376;28;20409;-57
2022/01/21 13:55:12;;;;;;;3.87;3.57;;;;;;;;;;5014253;28;20423;-59
2022/01/21 13:57:44;;;;;;;3.37;3.27;;;;;;;;;;5014227;28;20445;-55
2022/01/21 14:00:11;;;;;;;8.27;3.73;;;;;;;;;;5013142;28;20453;-54
2022/01/21 14:02:39;;;;;;;7.50;3.90;;;;;;;;;;5013710;28;20894;-54
2022/01/21 14:05:05;;;;;;;3.47;3.27;;;;;;;;;;5014092;28;20433;-53
2022/01/21 14:07:32;;;;;;;3.30;3.20;;;;;;;;;;5014083;28;20456;-53
2022/01/21 14:10:02;;;;;;;4.07;3.77;;;;;;;;;;5014156;28;20425;-56
2022/01/21 14:12:30;;;;;;;3.57;3.30;;;;;;;;;;5014154;28;20409;-60
2022/01/21 14:14:56;;;;;;;9.30;3.47;;;;;;;;;;5013973;28;20879;-53
2022/01/21 14:17:26;;;;;;;12.60;3.53;;;;;;;;;;5014755;28;20414;-57
2022/01/21 14:19:53;;;;;;;7.90;3.60;;;;;;;;;;5014133;28;20417;-54
2022/01/21 14:22:19;;;;;;;4.63;3.70;;;;;;;;;;5012357;28;20465;-55
2022/01/21 14:24:46;;;;;;;6.83;3.47;;;;;;;;;;5013706;28;20444;-53
2022/01/21 14:27:17;;;;;;;11.80;4.07;;;;;;;;;;5013695;28;20416;-53
2022/01/21 14:29:48;;;;;;;5.40;3.50;;;;;;;;;;5013512;28;21043;-54
2022/01/21 14:32:18;;;;;;;6.30;3.80;;;;;;;;;;5013699;28;20421;-55
2022/01/21 14:34:44;;;;;;;5.63;3.93;;;;;;;;;;5013634;28;20445;-55
2022/01/21 14:37:12;;;;;;;4.10;3.70;;;;;;;;;;5013543;28;20421;-56
2022/01/21 14:39:39;;;;;;;9.10;4.00;;;;;;;;;;5011873;28;20425;-55
2022/01/21 14:42:06;;;;;;;4.40;4.00;;;;;;;;;;5013638;28;20424;-56
2022/01/21 14:44:52;;;;;;;3.97;3.60;;;;;;;;;;5013278;28;20416;-54
2022/01/21 14:47:20;;;;;;;3.73;3.17;;;;;;;;;;5012972;28;20464;-56
2022/01/21 14:49:48;;;;;;;5.43;3.13;;;;;;;;;;5013238;28;20487;-55
2022/01/21 14:54:50;;;;;;;5.83;3.93;;;;;;;;;;5013808;28;20508;-59
2022/01/21 14:57:16;;;;;;;5.33;3.37;;;;;;;;;;5006708;28;20538;-54
2022/01/21 14:59:53;;;;;;;3.60;3.23;;;;;;;;;;5013099;28;20468;-53
2022/01/21 15:02:27;;;;;;;10.10;4.10;;;;;;;;;;5012299;28;20417;-57
2022/01/21 15:04:53;;;;;;;7.83;4.10;;;;;;;;;;5012567;28;20456;-54
2022/01/21 15:07:26;;;;;;;58.33;3.90;;;;;;;;;;5012447;28;20417;-55
2022/01/21 15:09:56;;;;;;;5.60;3.53;;;;;;;;;;5012513;28;20453;-55
2022/01/21 15:15:28;;;;;;;4.00;3.70;;;;;;;;;;4992813;28;20429;-54
2022/01/21 15:17:54;;;;;;;4.40;4.03;;;;;;;;;;4993033;28;20743;-54
2022/01/21 15:20:22;;;;;;;3.50;2.97;;;;;;;;;;4992017;28;20410;-56
2022/01/21 15:22:48;;;;;;;7.37;4.40;;;;;;;;;;4991264;28;20571;-56
2022/01/21 15:25:14;;;;;;;15.67;3.70;;;;;;;;;;4991685;28;20411;-56
2022/01/21 15:27:42;;;;;;;7.37;3.80;;;;;;;;;;4991792;28;20470;-55
2022/01/21 15:30:08;;;;;;;4.47;3.83;;;;;;;;;;4992166;28;20418;-52
2022/01/21 15:32:36;;;;;;;6.40;3.97;;;;;;;;;;4992365;28;20485;-54
2022/01/21 15:35:03;;;;;;;3.90;3.70;;;;;;;;;;4991441;28;20414;-54
2022/01/21 15:37:29;;;;;;;6.30;3.63;;;;;;;;;;4991865;28;20780;-51
2022/01/21 15:39:55;;;;;;;7.23;3.70;;;;;;;;;;4992511;28;20941;-55
2022/01/21 15:42:21;;;;;;;4.10;3.70;;;;;;;;;;4992706;28;20622;-64
2022/01/21 15:44:47;;;;;;;3.60;3.20;;;;;;;;;;4993228;28;20414;-59